createdAt,value
2018-01-30T00:00:01.436Z,5.50
2018-01-30T00:02:29.716Z,5.50
2018-01-30T00:04:58.237Z,5.40
2018-01-30T00:07:25.660Z,5.40
2018-01-30T00:09:53.860Z,5.30
2018-01-30T00:12:21.644Z,5.30
2018-01-30T00:14:49.068Z,5.30
2018-01-30T00:17:16.492Z,5.30
2018-01-30T00:19:44.081Z,5.30
2018-01-30T00:22:11.536Z,5.30
2018-01-30T00:24:38.959Z,5.20
2018-01-30T00:27:06.421Z,5.20
2018-01-30T00:29:33.844Z,5.20
2018-01-30T00:32:01.299Z,5.20
2018-01-30T00:34:28.728Z,5.20
2018-01-30T00:36:56.567Z,5.20
2018-01-30T00:39:24.764Z,5.20
2018-01-30T00:50:28.368Z,5.10
2018-01-30T00:52:55.906Z,5.10
2018-01-30T00:55:23.348Z,5.10
2018-01-30T00:57:50.800Z,5.00
2018-01-30T01:00:18.259Z,5.00
2018-01-30T01:02:45.685Z,5.00
2018-01-30T01:05:13.117Z,5.00
2018-01-30T01:07:40.876Z,4.90
2018-01-30T01:10:08.302Z,4.90
2018-01-30T01:12:35.728Z,4.90
2018-01-30T01:15:07.759Z,4.80
2018-01-30T01:17:35.545Z,4.80
2018-01-30T01:20:02.992Z,4.70
2018-01-30T01:22:30.423Z,4.70
2018-01-30T01:24:57.868Z,4.60
2018-01-30T01:27:25.293Z,4.60
2018-01-30T01:29:53.703Z,4.50
2018-01-30T01:32:21.196Z,4.50
2018-01-30T01:34:48.624Z,4.50
2018-01-30T01:37:16.080Z,4.40
2018-01-30T01:39:43.514Z,4.40
2018-01-30T01:42:11.720Z,4.30
2018-01-30T01:44:39.152Z,4.30
2018-01-30T01:47:07.598Z,4.30
2018-01-30T01:49:35.033Z,4.30
2018-01-30T01:52:02.608Z,4.20
2018-01-30T01:54:30.036Z,4.20
2018-01-30T01:56:57.488Z,4.20
2018-01-30T01:59:24.911Z,4.20
2018-01-30T02:01:52.364Z,4.10
2018-01-30T02:04:20.555Z,4.10
2018-01-30T02:06:49.272Z,4.10
2018-01-30T02:09:16.800Z,4.10
2018-01-30T02:11:44.228Z,4.10
2018-01-30T02:14:12.460Z,4.20
2018-01-30T02:16:39.884Z,4.10
2018-01-30T02:19:07.392Z,4.20
2018-01-30T02:21:34.835Z,4.20
2018-01-30T02:24:02.488Z,4.20
2018-01-30T02:26:29.925Z,4.20
2018-01-30T02:28:57.348Z,4.30
2018-01-30T02:31:26.113Z,4.20
2018-01-30T02:33:53.542Z,4.20
2018-01-30T02:36:20.995Z,4.20
2018-01-30T02:38:48.425Z,4.20
2018-01-30T02:44:10.337Z,4.20
2018-01-30T02:46:37.917Z,4.20
2018-01-30T02:49:06.132Z,4.30
2018-01-30T02:51:33.590Z,4.30
2018-01-30T02:54:01.011Z,4.30
2018-01-30T02:56:29.236Z,4.30
2018-01-30T02:58:57.435Z,4.30
2018-01-30T03:01:27.338Z,4.30
2018-01-30T03:03:54.777Z,4.30
2018-01-30T03:06:22.281Z,4.30
2018-01-30T03:08:49.708Z,4.30
2018-01-30T03:11:17.340Z,4.30
2018-01-30T03:14:05.548Z,4.30
2018-01-30T03:16:33.000Z,4.30
2018-01-30T03:19:00.437Z,4.30
2018-01-30T03:21:28.016Z,4.30
2018-01-30T03:23:55.447Z,4.40
2018-01-30T03:26:22.909Z,4.40
2018-01-30T03:28:50.340Z,4.40
2018-01-30T03:31:17.800Z,4.40
2018-01-30T03:33:45.292Z,4.40
2018-01-30T03:36:12.729Z,4.40
2018-01-30T03:38:40.288Z,4.40
2018-01-30T03:41:07.725Z,4.50
2018-01-30T03:43:39.117Z,4.50
2018-01-30T03:46:06.577Z,4.50
2018-01-30T03:48:34.323Z,4.50
2018-01-30T03:51:01.753Z,4.50
2018-01-30T03:53:29.956Z,4.60
2018-01-30T03:55:57.590Z,4.50
2018-01-30T03:58:25.021Z,4.60
2018-01-30T04:00:53.222Z,4.60
2018-01-30T04:03:20.687Z,4.60
2018-01-30T04:09:02.093Z,4.60
2018-01-30T04:11:29.507Z,4.70
2018-01-30T04:13:57.856Z,4.70
2018-01-30T04:16:25.297Z,4.70
2018-01-30T04:18:52.804Z,4.70
2018-01-30T04:21:21.003Z,4.70
2018-01-30T04:23:48.464Z,4.70
2018-01-30T04:26:15.896Z,4.70
2018-01-30T04:28:44.120Z,4.70
2018-01-30T04:31:11.572Z,4.70
2018-01-30T04:33:39.873Z,4.70
2018-01-30T04:36:07.303Z,4.70
2018-01-30T04:38:34.805Z,4.70
2018-01-30T04:41:02.238Z,4.70
2018-01-30T04:43:29.859Z,4.70
2018-01-30T04:45:59.211Z,4.70
2018-01-30T04:48:26.678Z,4.70
2018-01-30T04:50:54.112Z,4.70
2018-01-30T04:53:21.542Z,4.60
2018-01-30T04:55:49.151Z,4.60
2018-01-30T04:58:16.588Z,4.60
2018-01-30T05:00:44.021Z,4.60
2018-01-30T05:03:30.848Z,4.60
2018-01-30T05:05:58.276Z,4.60
2018-01-30T05:08:25.716Z,4.60
2018-01-30T05:10:55.350Z,4.60
2018-01-30T05:13:24.081Z,4.60
2018-01-30T05:15:51.512Z,4.60
2018-01-30T05:18:18.947Z,4.60
2018-01-30T05:20:46.399Z,4.60
2018-01-30T05:26:09.894Z,4.60
2018-01-30T05:28:37.389Z,4.60
2018-01-30T05:31:04.820Z,4.60
2018-01-30T05:33:32.393Z,4.60
2018-01-30T05:35:59.853Z,4.60
2018-01-30T05:38:27.307Z,4.60
2018-01-30T05:40:55.704Z,4.60
2018-01-30T05:43:23.251Z,4.60
2018-01-30T05:46:03.455Z,4.60
2018-01-30T05:48:31.685Z,4.60
2018-01-30T05:50:59.138Z,4.60
2018-01-30T05:53:28.580Z,4.60
2018-01-30T05:55:56.788Z,4.60
2018-01-30T05:58:24.360Z,4.50
2018-01-30T06:00:51.828Z,4.60
2018-01-30T06:03:19.272Z,4.60
2018-01-30T06:05:46.696Z,4.60
2018-01-30T06:08:14.909Z,4.50
2018-01-30T06:10:42.372Z,4.50
2018-01-30T06:13:09.828Z,4.50
2018-01-30T06:15:37.342Z,4.60
2018-01-30T06:18:05.582Z,4.60
2018-01-30T06:20:33.160Z,4.60
2018-01-30T06:23:01.558Z,4.60
2018-01-30T06:25:34.808Z,4.50
2018-01-30T06:28:02.252Z,4.60
2018-01-30T06:30:29.689Z,4.50
2018-01-30T06:32:57.181Z,4.50
2018-01-30T06:35:24.648Z,4.60
2018-01-30T06:37:52.091Z,4.50
2018-01-30T06:40:19.519Z,4.60
2018-01-30T06:42:46.999Z,4.60
2018-01-30T06:45:14.972Z,4.60
2018-01-30T06:47:42.410Z,4.60
2018-01-30T06:50:09.840Z,4.60
2018-01-30T06:52:38.485Z,4.60
2018-01-30T06:55:05.933Z,4.60
2018-01-30T06:57:33.368Z,4.60
2018-01-30T07:03:07.201Z,4.60
2018-01-30T07:05:34.653Z,4.60
2018-01-30T07:08:02.294Z,4.60
2018-01-30T07:10:30.496Z,4.60
2018-01-30T07:12:57.963Z,4.60
2018-01-30T07:15:25.411Z,4.60
2018-01-30T07:17:53.193Z,4.60
2018-01-30T07:20:20.636Z,4.60
2018-01-30T07:22:48.071Z,4.60
2018-01-30T07:25:15.609Z,4.70
2018-01-30T07:27:43.817Z,4.70
2018-01-30T07:30:11.612Z,4.70
2018-01-30T07:32:39.045Z,4.70
2018-01-30T07:35:06.488Z,4.70
2018-01-30T07:37:34.240Z,4.70
2018-01-30T07:40:02.491Z,4.80
2018-01-30T07:42:29.970Z,4.70
2018-01-30T07:44:58.205Z,4.80
2018-01-30T07:47:25.644Z,4.80
2018-01-30T07:49:53.119Z,4.80
2018-01-30T07:52:20.569Z,4.80
2018-01-30T07:54:48.248Z,4.80
2018-01-30T07:57:15.712Z,4.80
2018-01-30T07:59:43.211Z,4.90
2018-01-30T08:02:11.069Z,4.80
2018-01-30T08:04:39.309Z,4.80
2018-01-30T08:07:06.748Z,4.80
2018-01-30T08:09:34.204Z,4.80
2018-01-30T08:12:01.825Z,4.80
2018-01-30T08:14:29.260Z,4.80
2018-01-30T08:16:57.474Z,4.90
2018-01-30T08:19:24.972Z,4.80
2018-01-30T08:21:52.456Z,4.90
2018-01-30T08:24:20.682Z,4.90
2018-01-30T08:26:48.129Z,4.90
2018-01-30T08:29:15.624Z,4.90
2018-01-30T08:31:43.065Z,5.00
2018-01-30T08:34:10.664Z,4.90
2018-01-30T08:36:38.871Z,5.00
2018-01-30T08:39:06.381Z,5.00
2018-01-30T08:41:33.821Z,5.00
2018-01-30T08:44:01.272Z,5.00
2018-01-30T08:46:28.846Z,5.00
2018-01-30T08:48:56.273Z,5.00
2018-01-30T08:51:24.688Z,5.00
2018-01-30T08:53:52.154Z,5.00
2018-01-30T08:56:19.592Z,5.10
2018-01-30T08:58:47.052Z,5.10
2018-01-30T09:01:14.850Z,5.10
2018-01-30T09:03:42.325Z,5.20
2018-01-30T09:06:09.756Z,5.20
2018-01-30T09:08:37.224Z,5.20
2018-01-30T09:11:05.894Z,5.20
2018-01-30T09:13:33.333Z,5.20
2018-01-30T09:16:00.763Z,5.20
2018-01-30T09:18:28.649Z,5.30
2018-01-30T09:20:57.588Z,5.30
2018-01-30T09:23:25.797Z,5.30
2018-01-30T09:25:53.287Z,5.30
2018-01-30T09:28:20.727Z,5.30
2018-01-30T09:30:48.236Z,5.30
2018-01-30T09:33:16.468Z,5.40
2018-01-30T09:35:43.916Z,5.40
2018-01-30T09:38:11.504Z,5.40
2018-01-30T09:40:39.001Z,5.50
2018-01-30T09:43:07.252Z,5.50
2018-01-30T09:45:34.691Z,5.50
2018-01-30T09:48:02.136Z,5.50
2018-01-30T09:50:30.002Z,5.60
2018-01-30T09:52:57.468Z,5.50
2018-01-30T09:55:24.961Z,5.50
2018-01-30T10:00:56.896Z,5.60
2018-01-30T10:03:24.336Z,5.60
2018-01-30T10:05:51.808Z,5.60
2018-01-30T10:08:19.255Z,5.60
2018-01-30T10:10:46.716Z,5.60
2018-01-30T10:13:16.181Z,5.60
2018-01-30T10:15:44.486Z,5.70
2018-01-30T10:18:11.924Z,5.70
2018-01-30T10:20:40.148Z,5.70
2018-01-30T10:23:07.659Z,5.70
2018-01-30T10:25:36.611Z,5.80
2018-01-30T10:28:04.058Z,5.80
2018-01-30T10:30:31.492Z,5.90
2018-01-30T10:32:59.033Z,5.90
2018-01-30T10:35:26.484Z,5.90
2018-01-30T10:37:53.951Z,6.00
2018-01-30T10:40:21.384Z,6.00
2018-01-30T10:42:49.615Z,6.00
2018-01-30T10:45:17.063Z,6.00
2018-01-30T10:47:44.892Z,6.00
2018-01-30T10:50:14.005Z,6.10
2018-01-30T10:52:41.476Z,6.00
2018-01-30T10:55:08.927Z,6.10
2018-01-30T10:57:36.724Z,6.10
2018-01-30T11:00:04.180Z,6.20
2018-01-30T11:02:31.665Z,6.30
2018-01-30T11:04:59.673Z,6.40
2018-01-30T11:07:27.119Z,6.50
2018-01-30T11:09:55.481Z,6.60
2018-01-30T11:12:23.759Z,6.70
2018-01-30T11:14:51.200Z,6.70
2018-01-30T11:17:18.978Z,6.70
2018-01-30T11:19:46.416Z,6.80
2018-01-30T11:22:13.868Z,6.80
2018-01-30T11:24:45.332Z,7.00
2018-01-30T11:27:12.795Z,7.10
2018-01-30T11:29:40.266Z,7.20
2018-01-30T11:32:08.508Z,7.20
2018-01-30T11:34:36.024Z,7.20
2018-01-30T11:37:03.456Z,7.20
2018-01-30T11:39:31.792Z,7.20
2018-01-30T11:41:59.257Z,7.20
2018-01-30T11:44:26.705Z,7.20
2018-01-30T11:46:54.203Z,7.20
2018-01-30T11:49:22.416Z,7.30
2018-01-30T11:51:49.892Z,7.30
2018-01-30T11:54:17.387Z,7.40
2018-01-30T11:56:44.972Z,7.40
2018-01-30T11:59:13.204Z,7.40
2018-01-30T12:01:40.665Z,7.40
2018-01-30T12:04:08.125Z,7.40
2018-01-30T12:06:35.584Z,7.40
2018-01-30T12:09:23.853Z,7.30
2018-01-30T12:11:51.410Z,7.30
2018-01-30T12:14:19.156Z,7.20
2018-01-30T12:16:46.596Z,7.20
2018-01-30T12:19:14.089Z,7.20
2018-01-30T12:21:41.560Z,7.20
2018-01-30T12:24:09.764Z,7.20
2018-01-30T12:26:37.201Z,7.20
2018-01-30T12:29:04.756Z,7.20
2018-01-30T12:31:32.956Z,7.30
2018-01-30T12:34:00.392Z,7.30
2018-01-30T12:36:28.024Z,7.30
2018-01-30T12:38:55.459Z,7.30
2018-01-30T12:41:22.919Z,7.30
2018-01-30T12:43:50.363Z,7.30
2018-01-30T12:46:19.344Z,7.30
2018-01-30T12:48:46.790Z,7.30
2018-01-30T12:51:14.221Z,7.30
2018-01-30T12:53:42.760Z,7.30
2018-01-30T12:56:10.196Z,7.30
2018-01-30T12:58:38.527Z,7.20
2018-01-30T13:01:06.003Z,7.20
2018-01-30T13:03:34.212Z,7.20
2018-01-30T13:06:01.691Z,7.20
2018-01-30T13:08:29.168Z,7.20
2018-01-30T13:11:00.588Z,7.20
2018-01-30T13:13:28.025Z,7.30
2018-01-30T13:15:55.462Z,7.30
2018-01-30T13:18:27.594Z,7.40
2018-01-30T13:20:55.345Z,7.30
2018-01-30T13:23:22.784Z,7.40
2018-01-30T13:25:50.500Z,7.30
2018-01-30T13:28:18.808Z,7.40
2018-01-30T13:30:46.255Z,7.40
2018-01-30T13:33:13.783Z,7.40
2018-01-30T13:35:41.232Z,7.40
2018-01-30T13:38:08.671Z,7.40
2018-01-30T13:40:36.133Z,7.40
2018-01-30T13:43:03.573Z,7.40
2018-01-30T13:45:31.105Z,7.40
2018-01-30T13:47:59.309Z,7.50
2018-01-30T13:50:26.776Z,7.50
2018-01-30T13:52:54.222Z,7.50
2018-01-30T13:55:21.679Z,7.50
2018-01-30T13:57:49.148Z,7.60
2018-01-30T14:00:30.760Z,7.60
2018-01-30T14:02:58.193Z,7.60
2018-01-30T14:05:25.965Z,7.50
2018-01-30T14:07:53.401Z,7.50
2018-01-30T14:10:20.840Z,7.50
2018-01-30T14:12:49.176Z,7.50
2018-01-30T14:15:16.625Z,7.40
2018-01-30T14:17:44.133Z,7.40
2018-01-30T14:20:11.569Z,7.40
2018-01-30T14:22:39.802Z,7.40
2018-01-30T14:25:07.242Z,7.40
2018-01-30T14:27:34.909Z,7.40
2018-01-30T14:30:02.332Z,7.40
2018-01-30T14:32:29.763Z,7.40
2018-01-30T14:34:57.316Z,7.40
2018-01-30T14:37:24.753Z,7.40
2018-01-30T14:39:52.221Z,7.40
2018-01-30T14:42:32.427Z,7.40
2018-01-30T14:44:59.888Z,7.40
2018-01-30T14:47:27.323Z,7.30
2018-01-30T14:49:55.553Z,7.30
2018-01-30T14:52:23.018Z,7.30
2018-01-30T14:54:50.742Z,7.30
2018-01-30T14:57:18.168Z,7.30
2018-01-30T14:59:45.617Z,7.30
2018-01-30T15:02:13.076Z,7.30
2018-01-30T15:04:41.484Z,7.20
2018-01-30T15:07:13.415Z,7.20
2018-01-30T15:09:40.860Z,7.20
2018-01-30T15:12:08.564Z,7.20
2018-01-30T15:14:36.784Z,7.20
2018-01-30T15:17:04.279Z,7.20
2018-01-30T15:19:32.627Z,7.20
2018-01-30T15:22:00.093Z,7.10
2018-01-30T15:24:27.543Z,7.10
2018-01-30T15:26:55.279Z,7.10
2018-01-30T15:29:22.859Z,7.10
2018-01-30T15:31:50.294Z,7.00
2018-01-30T15:34:17.883Z,7.00
2018-01-30T15:36:45.334Z,6.90
2018-01-30T15:39:12.800Z,6.90
2018-01-30T15:41:40.279Z,6.90
2018-01-30T15:44:07.722Z,6.90
2018-01-30T15:46:35.189Z,6.80
2018-01-30T15:49:02.673Z,6.70
2018-01-30T15:51:30.180Z,6.60
2018-01-30T15:53:58.401Z,6.60
2018-01-30T15:56:26.603Z,6.50
2018-01-30T15:58:54.102Z,6.50
2018-01-30T16:01:21.552Z,6.40
2018-01-30T16:03:49.003Z,6.30
2018-01-30T16:06:16.468Z,6.30
2018-01-30T16:08:43.915Z,6.20
2018-01-30T16:11:11.356Z,6.20
2018-01-30T16:13:39.135Z,6.10
2018-01-30T16:16:06.686Z,6.00
2018-01-30T16:18:34.184Z,5.90
2018-01-30T16:21:02.502Z,5.90
2018-01-30T16:23:29.962Z,5.70
2018-01-30T16:25:58.329Z,5.50
2018-01-30T16:28:26.572Z,5.40
2018-01-30T16:30:54.008Z,5.40
2018-01-30T16:33:21.505Z,5.20
2018-01-30T16:35:49.062Z,5.10
2018-01-30T16:38:16.571Z,5.10
2018-01-30T16:40:44.008Z,5.10
2018-01-30T16:43:11.464Z,5.10
2018-01-30T16:45:38.904Z,5.10
2018-01-30T16:48:07.172Z,5.00
2018-01-30T16:50:34.673Z,4.90
2018-01-30T16:53:02.112Z,4.90
2018-01-30T16:55:30.342Z,4.90
2018-01-30T16:57:57.811Z,4.80
2018-01-30T17:00:25.244Z,4.80
2018-01-30T17:02:52.721Z,4.80
2018-01-30T17:05:20.156Z,4.70
2018-01-30T17:07:47.595Z,4.70
2018-01-30T17:10:15.487Z,4.60
2018-01-30T17:12:42.934Z,4.60
2018-01-30T17:15:10.371Z,4.50
2018-01-30T17:17:38.175Z,4.50
2018-01-30T17:20:05.612Z,4.50
2018-01-30T17:22:33.052Z,4.40
2018-01-30T17:25:00.850Z,4.40
2018-01-30T17:27:28.556Z,4.30
2018-01-30T17:29:56.766Z,4.20
2018-01-30T17:32:24.443Z,4.20
2018-01-30T17:34:51.885Z,4.20
2018-01-30T17:37:19.360Z,4.20
2018-01-30T17:39:46.800Z,4.10
2018-01-30T17:42:24.528Z,4.10
2018-01-30T17:44:51.968Z,4.10
2018-01-30T17:47:19.437Z,4.00
2018-01-30T17:49:46.948Z,4.00
2018-01-30T17:52:15.151Z,4.00
2018-01-30T17:54:42.612Z,4.00
2018-01-30T17:57:10.744Z,4.00
2018-01-30T17:59:38.974Z,3.90
2018-01-30T18:02:07.113Z,3.90
2018-01-30T18:04:34.586Z,3.90
2018-01-30T18:07:02.045Z,3.90
2018-01-30T18:09:29.532Z,3.90
2018-01-30T18:11:56.980Z,3.90
2018-01-30T18:14:24.441Z,3.90
2018-01-30T18:16:51.910Z,3.90
2018-01-30T18:19:19.349Z,3.90
2018-01-30T18:21:52.826Z,3.90
2018-01-30T18:24:20.617Z,3.90
2018-01-30T18:26:48.238Z,3.90
2018-01-30T18:29:16.568Z,3.90
2018-01-30T18:31:44.004Z,3.90
2018-01-30T18:34:11.475Z,3.90
2018-01-30T18:36:39.028Z,3.90
2018-01-30T18:39:06.469Z,3.90
2018-01-30T18:41:33.916Z,3.90
2018-01-30T18:44:01.372Z,3.90
2018-01-30T18:46:29.333Z,3.90
2018-01-30T18:48:56.793Z,3.90
2018-01-30T18:51:24.228Z,3.90
2018-01-30T18:56:43.912Z,3.80
2018-01-30T18:59:11.397Z,3.80
2018-01-30T19:01:40.192Z,3.70
2018-01-30T19:04:07.628Z,3.60
2018-01-30T19:06:35.836Z,3.60
2018-01-30T19:09:03.496Z,3.60
2018-01-30T19:11:30.916Z,3.60
2018-01-30T19:13:59.136Z,3.60
2018-01-30T19:16:27.164Z,3.50
2018-01-30T19:18:54.588Z,3.60
2018-01-30T19:21:22.085Z,3.50
2018-01-30T19:23:50.327Z,3.50
2018-01-30T19:26:17.795Z,3.50
2018-01-30T19:28:45.249Z,3.50
2018-01-30T19:31:13.104Z,3.50
2018-01-30T19:33:40.555Z,3.50
2018-01-30T19:36:09.907Z,3.50
2018-01-30T19:38:38.229Z,3.40
2018-01-30T19:41:05.675Z,3.50
2018-01-30T19:43:33.464Z,3.50
2018-01-30T19:46:00.900Z,3.40
2018-01-30T19:48:29.109Z,3.40
2018-01-30T19:51:04.469Z,3.40
2018-01-30T19:53:31.905Z,3.40
2018-01-30T19:55:59.450Z,3.40
2018-01-30T19:58:26.935Z,3.40
2018-01-30T20:00:54.380Z,3.40
2018-01-30T20:03:21.817Z,3.40
2018-01-30T20:05:49.280Z,3.40
2018-01-30T20:08:16.739Z,3.40
2018-01-30T20:10:44.237Z,3.40
2018-01-30T20:13:11.688Z,3.40
2018-01-30T20:15:39.154Z,3.40
2018-01-30T20:18:06.749Z,3.40
2018-01-30T20:20:34.183Z,3.30
2018-01-30T20:23:08.292Z,3.30
2018-01-30T20:25:36.527Z,3.30
2018-01-30T20:28:03.992Z,3.20
2018-01-30T20:30:36.660Z,3.20
2018-01-30T20:33:04.096Z,3.20
2018-01-30T20:35:32.306Z,3.20
2018-01-30T20:37:59.822Z,3.20
2018-01-30T20:40:27.952Z,3.10
2018-01-30T20:42:55.461Z,3.20
2018-01-30T20:45:22.892Z,3.20
2018-01-30T20:47:50.401Z,3.20
2018-01-30T20:50:17.827Z,3.20
2018-01-30T20:52:45.279Z,3.20
2018-01-30T20:55:12.780Z,3.20
2018-01-30T20:57:47.088Z,3.20
2018-01-30T21:00:14.518Z,3.20
2018-01-30T21:02:42.725Z,3.10
2018-01-30T21:05:10.194Z,3.10
2018-01-30T21:07:37.972Z,3.10
2018-01-30T21:10:22.255Z,3.00
2018-01-30T21:12:53.851Z,3.00
2018-01-30T21:15:21.311Z,3.00
2018-01-30T21:17:48.752Z,3.00
2018-01-30T21:23:07.081Z,3.00
2018-01-30T21:25:41.737Z,2.90
2018-01-30T21:28:09.160Z,2.90
2018-01-30T21:30:37.456Z,2.80
2018-01-30T21:33:04.892Z,2.80
2018-01-30T21:35:34.650Z,2.70
2018-01-30T21:38:02.797Z,2.70
2018-01-30T21:40:30.237Z,2.70
2018-01-30T21:42:58.713Z,2.70
2018-01-30T21:45:26.441Z,2.70
2018-01-30T21:47:53.993Z,2.80
2018-01-30T21:50:21.520Z,2.80
2018-01-30T21:52:49.420Z,2.80
2018-01-30T21:55:16.856Z,2.80
2018-01-30T21:57:44.293Z,2.80
2018-01-30T22:00:11.757Z,2.80
2018-01-30T22:02:43.193Z,2.80
2018-01-30T22:05:11.396Z,2.80
2018-01-30T22:07:38.844Z,2.80
2018-01-30T22:10:06.305Z,2.80
2018-01-30T22:12:33.773Z,2.80
2018-01-30T22:15:02.432Z,2.80
2018-01-30T22:17:30.628Z,2.90
2018-01-30T22:19:58.415Z,2.80
2018-01-30T22:22:25.857Z,2.90
2018-01-30T22:24:53.300Z,2.90
2018-01-30T22:41:39.281Z,3.20
2018-01-30T22:44:09.776Z,3.30
2018-01-30T22:46:37.203Z,3.30
